Illovo, South Africa
Current Conditions -  °F | °C
As of 3:00 PM on Thursday 30 Oct 2014 (Local Time) from FALE Reporting Station
Broken Clouds Broken Clouds  
Wind Chill: 73°   Ceiling: 1800
Heat Index: 73°   Visibility: 6mi
Dew Point: 64°   Wind: 21mph
Humidity: 73%   Direction: 190°S
Pressure: 29.85"   Gusts: 32mph
Location:  30.12°S, 30.85°E
Report Text: FALE 301300Z 19018G28KT 9999 BKN018 23/18 Q1011 NOSIG
Loading
Personal Weather Stations






























Interactive Weather Map
Tropical Storm Tracking
New forecast layout! Learn more

10-Day Weather Forecast

Advertisements
Track Severe Weather on mobile